Peotone Weather
Peotone-Weather Station Historical Data
Daily Summary for October 27, 2020 Units:  Both    English   Metric
Daily Weekly Monthly Yearly Custom
  High: Low: Average:
Temperature: 38 °F /  3.3 °C 33.5 °F /  0.8 °C 35.2 °F /  1.8 °C
Dew Point: 36.5 °F /  2.5 °C 32 °F /  0 °C 33.6 °F /  0.9 °C
Humidity: 96% 88.1% 94%
Wind Speed: 7.9mph /  12.7km/h - 3.2mph /  5.1km/h
Wind Gust: 13.8mph /  22.2km/h - -
Wind- - ESE
Pressure: 30.36 in /  1028 hPa 30.18 in /  1021.9 hPa -
Precipitation: 0.07 in /  1.78 mm    
Historical Graphs
 
 
Tabular Data for October 27, 2020
Time Temperature Dew Point Pressure Wind Wind Speed Wind Gust Humidity Rainfall Rate (Hourly) solar
00:04 35.4 °F /  1.9 °C 32.3 °F /  0.2 °C 30.36in /  1028hPa NE 4.3mph /  6.9km/h 8.1mph /  13km/h 88.3% 0.00in /  0mm 0 W/m2
00:09 35.4 °F /  1.9 °C 32.2 °F /  0.1 °C 30.35in /  1027.7hPa NE 3.1mph /  5km/h 8.1mph /  13km/h 88.1% 0.00in /  0mm 0 W/m2
00:14 35.3 °F /  1.8 °C 32.2 °F /  0.1 °C 30.36in /  1028hPa NNE 4.7mph /  7.6km/h 9.2mph /  14.8km/h 88.3% 0.00in /  0mm 0 W/m2
00:19 35.2 °F /  1.8 °C 32 °F /  0 °C 30.35in /  1027.7hPa NE 4.2mph /  6.8km/h 9.2mph /  14.8km/h 88.1% 0.00in /  0mm 0 W/m2
00:24 35.2 °F /  1.8 °C 32.3 °F /  0.2 °C 30.35in /  1027.7hPa NNE 4.7mph /  7.6km/h 9.2mph /  14.8km/h 89% 0.00in /  0mm 0 W/m2
00:29 35.2 °F /  1.8 °C 32.3 °F /  0.2 °C 30.35in /  1027.7hPa NNE 5.5mph /  8.9km/h 9.2mph /  14.8km/h 89% 0.00in /  0mm 0 W/m2
00:34 35.3 °F /  1.8 °C 32.4 °F /  0.2 °C 30.36in /  1028hPa NNE 6mph /  9.7km/h 9.2mph /  14.8km/h 89% 0.00in /  0mm 0 W/m2
00:39 35.1 °F /  1.7 °C 32.2 °F /  0.1 °C 30.36in /  1028hPa NNE 3.8mph /  6.1km/h 9.2mph /  14.8km/h 88.9% 0.00in /  0mm 0 W/m2
00:44 35 °F /  1.7 °C 32.1 °F /  0.1 °C 30.35in /  1027.7hPa NE 3.7mph /  6km/h 8.1mph /  13km/h 89% 0.00in /  0mm 0 W/m2
00:49 35 °F /  1.7 °C 32.1 °F /  0.1 °C 30.35in /  1027.7hPa NE 3.3mph /  5.3km/h 8.1mph /  13km/h 89.1% 0.00in /  0mm 0 W/m2
00:54 35 °F /  1.7 °C 32.4 °F /  0.2 °C 30.35in /  1027.7hPa NNE 4.5mph /  7.2km/h 6.9mph /  11.1km/h 90% 0.00in /  0mm 0 W/m2
00:59 34.9 °F /  1.6 °C 32.3 °F /  0.2 °C 30.35in /  1027.7hPa NNE 3.1mph /  5km/h 8.1mph /  13km/h 90% 0.00in /  0mm 0 W/m2
01:04 34.9 °F /  1.6 °C 32.2 °F /  0.1 °C 30.36in /  1028hPa NNE 4.3mph /  6.9km/h 9.2mph /  14.8km/h 89.9% 0.00in /  0mm 0 W/m2
01:09 34.9 °F /  1.6 °C 32.3 °F /  0.2 °C 30.35in /  1027.7hPa NE 4.6mph /  7.4km/h 9.2mph /  14.8km/h 90% 0.00in /  0mm 0 W/m2
01:14 34.8 °F /  1.6 °C 32.2 °F /  0.1 °C 30.36in /  1028hPa NNE 6.1mph /  9.8km/h 12.6mph /  20.3km/h 90% 0.00in /  0mm 0 W/m2
01:19 34.8 °F /  1.6 °C 32.2 °F /  0.1 °C 30.36in /  1028hPa NE 4.2mph /  6.8km/h 12.6mph /  20.3km/h 90% 0.00in /  0mm 0 W/m2
01:24 34.7 °F /  1.5 °C 32.1 °F /  0.1 °C 30.35in /  1027.7hPa NE 3.4mph /  5.5km/h 10.3mph /  16.6km/h 90% 0.00in /  0mm 0 W/m2
01:29 34.6 °F /  1.4 °C 32 °F /  0 °C 30.35in /  1027.7hPa NE 4.9mph /  7.9km/h 10.3mph /  16.6km/h 90% 0.00in /  0mm 0 W/m2
01:34 34.6 °F /  1.4 °C 32.1 °F /  0.1 °C 30.35in /  1027.7hPa NE 4.7mph /  7.6km/h 10.3mph /  16.6km/h 90.4% 0.00in /  0mm 0 W/m2
01:39 34.5 °F /  1.4 °C 32 °F /  0 °C 30.35in /  1027.7hPa NE 3.6mph /  5.8km/h 10.3mph /  16.6km/h 90.5% 0.00in /  0mm 0 W/m2
01:44 34.4 °F /  1.3 °C 32 °F /  0 °C 30.35in /  1027.7hPa NE 3.5mph /  5.6km/h 8.1mph /  13km/h 90.7% 0.00in /  0mm 0 W/m2
01:49 34.4 °F /  1.3 °C 32 °F /  0 °C 30.35in /  1027.7hPa NE 4.1mph /  6.6km/h 6.9mph /  11.1km/h 90.8% 0.00in /  0mm 0 W/m2
01:54 34.5 °F /  1.4 °C 32.1 °F /  0.1 °C 30.35in /  1027.7hPa NE 4.9mph /  7.9km/h 9.2mph /  14.8km/h 91% 0.00in /  0mm 0 W/m2
01:59 34.4 °F /  1.3 °C 32.1 °F /  0.1 °C 30.35in /  1027.7hPa NE 3.6mph /  5.8km/h 9.2mph /  14.8km/h 91% 0.00in /  0mm 0 W/m2
02:04 34.4 °F /  1.3 °C 32 °F /  0 °C 30.35in /  1027.7hPa NE 3.1mph /  5km/h 8.1mph /  13km/h 91% 0.00in /  0mm 0 W/m2
02:09 34.4 °F /  1.3 °C 32.1 °F /  0.1 °C 30.35in /  1027.7hPa NE 2.6mph /  4.2km/h 8.1mph /  13km/h 91.2% 0.00in /  0mm 0 W/m2
02:14 34.4 °F /  1.3 °C 32 °F /  0 °C 30.35in /  1027.7hPa ENE 2.4mph /  3.9km/h 8.1mph /  13km/h 91% 0.00in /  0mm 0 W/m2
02:19 34.4 °F /  1.3 °C 32.3 °F /  0.2 °C 30.36in /  1028hPa NE 3.3mph /  5.3km/h 8.1mph /  13km/h 91.9% 0.00in /  0mm 0 W/m2
02:24 34.5 °F /  1.4 °C 32.4 °F /  0.2 °C 30.36in /  1028hPa NNE 4.2mph /  6.8km/h 8.1mph /  13km/h 92% 0.00in /  0mm 0 W/m2
02:29 34.5 °F /  1.4 °C 32.4 °F /  0.2 °C 30.36in /  1028hPa NE 2.6mph /  4.2km/h 6.9mph /  11.1km/h 92% 0.00in /  0mm 0 W/m2
02:34 34.5 °F /  1.4 °C 32.4 °F /  0.2 °C 30.36in /  1028hPa NE 2.2mph /  3.5km/h 5.8mph /  9.3km/h 92% 0.00in /  0mm 0 W/m2
02:39 34.5 °F /  1.4 °C 32.3 °F /  0.2 °C 30.36in /  1028hPa NE 2.7mph /  4.3km/h 6.9mph /  11.1km/h 91.9% 0.00in /  0mm 0 W/m2
02:44 34.5 °F /  1.4 °C 32.5 °F /  0.3 °C 30.36in /  1028hPa NE 4.2mph /  6.8km/h 8.1mph /  13km/h 92% 0.00in /  0mm 0 W/m2
02:49 34.5 °F /  1.4 °C 32.4 °F /  0.2 °C 30.36in /  1028hPa NE 4.3mph /  6.9km/h 8.1mph /  13km/h 92% 0.00in /  0mm 0 W/m2
02:54 34.4 °F /  1.3 °C 32.3 °F /  0.2 °C 30.36in /  1028hPa NE 4.6mph /  7.4km/h 8.1mph /  13km/h 92% 0.00in /  0mm 0 W/m2
02:59 34.3 °F /  1.3 °C 32.2 °F /  0.1 °C 30.35in /  1027.7hPa NE 4.3mph /  6.9km/h 9.2mph /  14.8km/h 92% 0.00in /  0mm 0 W/m2
03:04 34.2 °F /  1.2 °C 32.2 °F /  0.1 °C 30.36in /  1028hPa NNE 3.6mph /  5.8km/h 6.9mph /  11.1km/h 92.3% 0.00in /  0mm 0 W/m2
03:09 34.2 °F /  1.2 °C 32.4 °F /  0.2 °C 30.36in /  1028hPa NE 3.4mph /  5.5km/h 5.8mph /  9.3km/h 93% 0.00in /  0mm 0 W/m2
03:14 34.2 °F /  1.2 °C 32.3 °F /  0.2 °C 30.36in /  1028hPa NE 3.3mph /  5.3km/h 5.8mph /  9.3km/h 93% 0.01in /  0.25mm 0 W/m2
03:19 34.2 °F /  1.2 °C 32.4 °F /  0.2 °C 30.36in /  1028hPa NNE 3.2mph /  5.1km/h 5.8mph /  9.3km/h 93% 0.01in /  0.25mm 0 W/m2
03:24 34.1 °F /  1.2 °C 32.3 °F /  0.2 °C 30.35in /  1027.7hPa NE 1.5mph /  2.4km/h 4.6mph /  7.4km/h 93% 0.01in /  0.25mm 0 W/m2
03:29 33.9 °F /  1.1 °C 32.1 °F /  0.1 °C 30.35in /  1027.7hPa NE 3.1mph /  5km/h 5.8mph /  9.3km/h 93% 0.01in /  0.25mm 0 W/m2
03:34 34 °F /  1.1 °C 32.3 °F /  0.2 °C 30.35in /  1027.7hPa NNE 3.4mph /  5.5km/h 6.9mph /  11.1km/h 93.5% 0.01in /  0.25mm 0 W/m2
03:39 34 °F /  1.1 °C 32.4 °F /  0.2 °C 30.35in /  1027.7hPa NE 3.6mph /  5.8km/h 6.9mph /  11.1km/h 93.9% 0.01in /  0.25mm 0 W/m2
03:44 34 °F /  1.1 °C 32.3 °F /  0.2 °C 30.34in /  1027.3hPa NE 2.5mph /  4km/h 6.9mph /  11.1km/h 93.5% 0.01in /  0.25mm 0 W/m2
03:49 33.9 °F /  1.1 °C 32.3 °F /  0.2 °C 30.34in /  1027.3hPa NNE 2.4mph /  3.9km/h 5.8mph /  9.3km/h 93.7% 0.01in /  0.25mm 0 W/m2
03:54 33.9 °F /  1.1 °C 32.4 °F /  0.2 °C 30.34in /  1027.3hPa NNE 3.5mph /  5.6km/h 5.8mph /  9.3km/h 94% 0.01in /  0.25mm 0 W/m2
03:59 33.8 °F /  1 °C 32.1 °F /  0.1 °C 30.34in /  1027.3hPa NNE 2.4mph /  3.9km/h 5.8mph /  9.3km/h 93.5% 0.01in /  0.25mm 0 W/m2
04:04 33.8 °F /  1 °C 32.2 °F /  0.1 °C 30.34in /  1027.3hPa NNE 1.9mph /  3.1km/h 4.6mph /  7.4km/h 93.8% 0.01in /  0.25mm 0 W/m2
04:09 33.8 °F /  1 °C 32.3 °F /  0.2 °C 30.35in /  1027.7hPa NNE 2.8mph /  4.5km/h 5.8mph /  9.3km/h 94% 0.01in /  0.25mm 0 W/m2
04:14 33.8 °F /  1 °C 32.3 °F /  0.2 °C 30.35in /  1027.7hPa NNE 3.6mph /  5.8km/h 5.8mph /  9.3km/h 94% 0.01in /  0.25mm 0 W/m2
04:19 33.9 °F /  1.1 °C 32.3 °F /  0.2 °C 30.35in /  1027.7hPa NNE 3.8mph /  6.1km/h 6.9mph /  11.1km/h 94% 0.01in /  0.25mm 0 W/m2
04:24 33.9 °F /  1.1 °C 32.3 °F /  0.2 °C 30.35in /  1027.7hPa NNE 3.4mph /  5.5km/h 6.9mph /  11.1km/h 94% 0.00in /  0mm 0 W/m2
04:29 33.8 °F /  1 °C 32.3 °F /  0.2 °C 30.35in /  1027.7hPa NNE 3.8mph /  6.1km/h 6.9mph /  11.1km/h 94% 0.00in /  0mm 0 W/m2
04:34 33.6 °F /  0.9 °C 32.1 °F /  0.1 °C 30.35in /  1027.7hPa NE 2.8mph /  4.5km/h 6.9mph /  11.1km/h 94% 0.00in /  0mm 0 W/m2
04:39 33.7 °F /  0.9 °C 32.1 °F /  0.1 °C 30.35in /  1027.7hPa NNE 3.2mph /  5.1km/h 5.8mph /  9.3km/h 94% 0.00in /  0mm 0 W/m2
04:44 33.8 °F /  1 °C 32.4 °F /  0.2 °C 30.35in /  1027.7hPa NNE 5mph /  8km/h 8.1mph /  13km/h 94.5% 0.00in /  0mm 0 W/m2
04:49 33.7 °F /  0.9 °C 32.2 °F /  0.1 °C 30.35in /  1027.7hPa NNE 2.7mph /  4.3km/h 8.1mph /  13km/h 94.2% 0.00in /  0mm 0 W/m2
04:54 33.6 °F /  0.9 °C 32.3 °F /  0.2 °C 30.35in /  1027.7hPa NE 0.9mph /  1.4km/h 5.8mph /  9.3km/h 94.7% 0.00in /  0mm 0 W/m2
04:59 33.6 °F /  0.9 °C 32.3 °F /  0.2 °C 30.35in /  1027.7hPa ENE 2mph /  3.2km/h 4.6mph /  7.4km/h 95% 0.00in /  0mm 0 W/m2
05:04 33.6 °F /  0.9 °C 32.3 °F /  0.2 °C 30.34in /  1027.3hPa NE 3.5mph /  5.6km/h 5.8mph /  9.3km/h 95% 0.00in /  0mm 0 W/m2
05:09 33.5 °F /  0.8 °C 32.2 °F /  0.1 °C 30.34in /  1027.3hPa NNE 3mph /  4.8km/h 5.8mph /  9.3km/h 95% 0.00in /  0mm 0 W/m2
05:14 33.6 °F /  0.9 °C 32.3 °F /  0.2 °C 30.34in /  1027.3hPa NNE 3.4mph /  5.5km/h 5.8mph /  9.3km/h 95% 0.00in /  0mm 0 W/m2
05:19 33.7 °F /  0.9 °C 32.4 °F /  0.2 °C 30.34in /  1027.3hPa NNE 4.3mph /  6.9km/h 9.2mph /  14.8km/h 95% 0.00in /  0mm 0 W/m2
05:24 33.6 °F /  0.9 °C 32.4 °F /  0.2 °C 30.35in /  1027.7hPa NNE 2.9mph /  4.7km/h 9.2mph /  14.8km/h 95% 0.00in /  0mm 0 W/m2
05:29 33.7 °F /  0.9 °C 32.4 °F /  0.2 °C 30.35in /  1027.7hPa NE 2.8mph /  4.5km/h 6.9mph /  11.1km/h 95% 0.00in /  0mm 0 W/m2
05:34 33.7 °F /  0.9 °C 32.4 °F /  0.2 °C 30.34in /  1027.3hPa NNE 2.2mph /  3.5km/h 6.9mph /  11.1km/h 95% 0.00in /  0mm 0 W/m2
05:39 33.6 °F /  0.9 °C 32.4 °F /  0.2 °C 30.34in /  1027.3hPa NE 2.5mph /  4km/h 6.9mph /  11.1km/h 95% 0.00in /  0mm 0 W/m2
05:44 33.6 °F /  0.9 °C 32.3 °F /  0.2 °C 30.35in /  1027.7hPa NNE 3.8mph /  6.1km/h 6.9mph /  11.1km/h 95% 0.01in /  0.25mm 0 W/m2
05:49 33.7 °F /  0.9 °C 32.4 °F /  0.2 °C 30.35in /  1027.7hPa NNE 4.3mph /  6.9km/h 9.2mph /  14.8km/h 95% 0.01in /  0.25mm 0 W/m2
05:54 33.6 °F /  0.9 °C 32.4 °F /  0.2 °C 30.35in /  1027.7hPa NNE 4.3mph /  6.9km/h 9.2mph /  14.8km/h 95% 0.01in /  0.25mm 0 W/m2
05:59 33.6 °F /  0.9 °C 32.3 °F /  0.2 °C 30.35in /  1027.7hPa NE 4.5mph /  7.2km/h 6.9mph /  11.1km/h 95% 0.01in /  0.25mm 0 W/m2
06:04 33.6 °F /  0.9 °C 32.3 °F /  0.2 °C 30.35in /  1027.7hPa NNE 4.2mph /  6.8km/h 8.1mph /  13km/h 95% 0.01in /  0.25mm 0 W/m2
06:09 33.7 °F /  0.9 °C 32.6 °F /  0.3 °C 30.35in /  1027.7hPa NE 3mph /  4.8km/h 8.1mph /  13km/h 95.8% 0.01in /  0.25mm 0 W/m2
06:14 33.7 °F /  0.9 °C 32.5 °F /  0.3 °C 30.35in /  1027.7hPa NE 3.2mph /  5.1km/h 8.1mph /  13km/h 95.2% 0.01in /  0.25mm 0 W/m2
06:19 33.7 °F /  0.9 °C 32.7 °F /  0.4 °C 30.35in /  1027.7hPa NE 2.5mph /  4km/h 5.8mph /  9.3km/h 95.8% 0.01in /  0.25mm 0 W/m2
06:24 33.8 °F /  1 °C 32.7 °F /  0.4 °C 30.35in /  1027.7hPa NE 2.9mph /  4.7km/h 5.8mph /  9.3km/h 95.8% 0.01in /  0.25mm 0 W/m2
06:29 33.8 °F /  1 °C 32.6 °F /  0.3 °C 30.34in /  1027.3hPa NE 3.5mph /  5.6km/h 9.2mph /  14.8km/h 95.3% 0.01in /  0.25mm 0 W/m2
06:34 33.7 °F /  0.9 °C 32.6 °F /  0.3 °C 30.34in /  1027.3hPa ENE 3mph /  4.8km/h 9.2mph /  14.8km/h 95.8% 0.01in /  0.25mm 0 W/m2
06:39 33.8 °F /  1 °C 32.7 °F /  0.4 °C 30.34in /  1027.3hPa NE 2.8mph /  4.5km/h 8.1mph /  13km/h 96% 0.01in /  0.25mm 0 W/m2
06:44 33.7 °F /  0.9 °C 32.6 °F /  0.3 °C 30.34in /  1027.3hPa NE 1.4mph /  2.3km/h 8.1mph /  13km/h 95.7% 0.01in /  0.25mm 0 W/m2
06:49 33.8 °F /  1 °C 32.8 °F /  0.4 °C 30.34in /  1027.3hPa NE 2.5mph /  4km/h 4.6mph /  7.4km/h 96% 0.01in /  0.25mm 0 W/m2
06:54 33.8 °F /  1 °C 32.8 °F /  0.4 °C 30.34in /  1027.3hPa NE 3.5mph /  5.6km/h 6.9mph /  11.1km/h 96% 0.00in /  0mm 0 W/m2
06:59 33.9 °F /  1.1 °C 32.9 °F /  0.5 °C 30.35in /  1027.7hPa NNE 3.4mph /  5.5km/h 6.9mph /  11.1km/h 96% 0.00in /  0mm 0 W/m2
07:04 33.9 °F /  1.1 °C 32.9 °F /  0.5 °C 30.35in /  1027.7hPa NNE 3.8mph /  6.1km/h 8.1mph /  13km/h 96% 0.00in /  0mm 0 W/m2
07:09 33.9 °F /  1.1 °C 32.8 °F /  0.4 °C 30.35in /  1027.7hPa NNE 3mph /  4.8km/h 8.1mph /  13km/h 96% 0.00in /  0mm 0 W/m2
07:14 33.9 °F /  1.1 °C 32.9 °F /  0.5 °C 30.34in /  1027.3hPa NNE 4.3mph /  6.9km/h 6.9mph /  11.1km/h 96% 0.00in /  0mm 0 W/m2
07:19 33.9 °F /  1.1 °C 32.9 °F /  0.5 °C 30.35in /  1027.7hPa NNE 4mph /  6.4km/h 6.9mph /  11.1km/h 96% 0.00in /  0mm 0 W/m2
07:24 33.9 °F /  1.1 °C 32.9 °F /  0.5 °C 30.35in /  1027.7hPa NNE 4mph /  6.4km/h 6.9mph /  11.1km/h 96% 0.00in /  0mm 0 W/m2
07:29 33.9 °F /  1.1 °C 32.9 °F /  0.5 °C 30.35in /  1027.7hPa NE 2.4mph /  3.9km/h 6.9mph /  11.1km/h 96% 0.00in /  0mm 0 W/m2
07:34 33.9 °F /  1.1 °C 32.9 °F /  0.5 °C 30.35in /  1027.7hPa NE 1.7mph /  2.7km/h 4.6mph /  7.4km/h 96% 0.00in /  0mm 0 W/m2
07:39 33.9 °F /  1.1 °C 32.8 °F /  0.4 °C 30.35in /  1027.7hPa NNE 1.6mph /  2.6km/h 4.6mph /  7.4km/h 96% 0.00in /  0mm 0 W/m2
07:44 34 °F /  1.1 °C 33 °F /  0.6 °C 30.35in /  1027.7hPa NE 0.8mph /  1.3km/h 3.4mph /  5.5km/h 96% 0.00in /  0mm 5 W/m2
07:49 34 °F /  1.1 °C 32.9 °F /  0.5 °C 30.35in /  1027.7hPa NE 1.3mph /  2.1km/h 3.4mph /  5.5km/h 96% 0.00in /  0mm 5 W/m2
07:54 34 °F /  1.1 °C 33 °F /  0.6 °C 30.35in /  1027.7hPa NE 1.3mph /  2.1km/h 3.4mph /  5.5km/h 96% 0.00in /  0mm 9 W/m2
07:59 34 °F /  1.1 °C 33 °F /  0.6 °C 30.34in /  1027.3hPa NE 0.8mph /  1.3km/h 2.3mph /  3.7km/h 96% 0.00in /  0mm 9 W/m2
08:04 34.2 °F /  1.2 °C 33.2 °F /  0.7 °C 30.34in /  1027.3hPa NE 1.6mph /  2.6km/h 3.4mph /  5.5km/h 96% 0.00in /  0mm 12 W/m2
08:09 34.3 °F /  1.3 °C 33.3 °F /  0.7 °C 30.34in /  1027.3hPa NE 2.1mph /  3.4km/h 4.6mph /  7.4km/h 96% 0.00in /  0mm 14 W/m2
08:14 34.3 °F /  1.3 °C 33.3 °F /  0.7 °C 30.34in /  1027.3hPa NE 1.4mph /  2.3km/h 4.6mph /  7.4km/h 96% 0.00in /  0mm 14 W/m2
08:19 34.3 °F /  1.3 °C 33.3 °F /  0.7 °C 30.34in /  1027.3hPa NNE 2.5mph /  4km/h 4.6mph /  7.4km/h 96% 0.00in /  0mm 25 W/m2
08:24 34.3 °F /  1.3 °C 33.3 °F /  0.7 °C 30.35in /  1027.7hPa NE 1.1mph /  1.8km/h 4.6mph /  7.4km/h 96% 0.00in /  0mm 28 W/m2
08:29 34.4 °F /  1.3 °C 33.4 °F /  0.8 °C 30.35in /  1027.7hPa ENE 0.8mph /  1.3km/h 3.4mph /  5.5km/h 96% 0.00in /  0mm 28 W/m2
08:34 34.4 °F /  1.3 °C 33.4 °F /  0.8 °C 30.35in /  1027.7hPa NE 0.5mph /  0.8km/h 3.4mph /  5.5km/h 96% 0.00in /  0mm 26 W/m2
08:39 34.5 °F /  1.4 °C 33.4 °F /  0.8 °C 30.35in /  1027.7hPa NE 1mph /  1.6km/h 2.3mph /  3.7km/h 96% 0.01in /  0.25mm 26 W/m2
08:44 34.6 °F /  1.4 °C 33.6 °F /  0.9 °C 30.35in /  1027.7hPa NE 1.2mph /  1.9km/h 3.4mph /  5.5km/h 96% 0.01in /  0.25mm 26 W/m2
08:49 34.6 °F /  1.4 °C 33.6 °F /  0.9 °C 30.35in /  1027.7hPa NNE 0.7mph /  1.1km/h 3.4mph /  5.5km/h 96% 0.01in /  0.25mm 26 W/m2
08:54 34.7 °F /  1.5 °C 33.6 °F /  0.9 °C 30.36in /  1028hPa NNE 0.3mph /  0.5km/h 2.3mph /  3.7km/h 96% 0.01in /  0.25mm 26 W/m2
08:59 34.8 °F /  1.6 °C 33.8 °F /  1 °C 30.36in /  1028hPa NNE 1.7mph /  2.7km/h 3.4mph /  5.5km/h 96% 0.01in /  0.25mm 26 W/m2
09:04 34.8 °F /  1.6 °C 33.8 °F /  1 °C 30.36in /  1028hPa ENE 0.9mph /  1.4km/h 3.4mph /  5.5km/h 96% 0.01in /  0.25mm 26 W/m2
09:09 35 °F /  1.7 °C 34 °F /  1.1 °C 30.36in /  1028hPa NNE 2.8mph /  4.5km/h 5.8mph /  9.3km/h 96% 0.01in /  0.25mm 28 W/m2
09:14 35 °F /  1.7 °C 34 °F /  1.1 °C 30.36in /  1028hPa NNE 3.7mph /  6km/h 5.8mph /  9.3km/h 96% 0.01in /  0.25mm 33 W/m2
09:19 35.1 °F /  1.7 °C 34.1 °F /  1.2 °C 30.35in /  1027.7hPa NNE 2.5mph /  4km/h 4.6mph /  7.4km/h 96% 0.01in /  0.25mm 33 W/m2
09:24 35.1 °F /  1.7 °C 34.1 °F /  1.2 °C 30.35in /  1027.7hPa NE 3.6mph /  5.8km/h 5.8mph /  9.3km/h 96% 0.01in /  0.25mm 30 W/m2
09:29 35.1 °F /  1.7 °C 34.1 °F /  1.2 °C 30.35in /  1027.7hPa NE 3.1mph /  5km/h 5.8mph /  9.3km/h 96% 0.01in /  0.25mm 26 W/m2
09:34 35.1 °F /  1.7 °C 34 °F /  1.1 °C 30.35in /  1027.7hPa NNE 3.8mph /  6.1km/h 6.9mph /  11.1km/h 96% 0.01in /  0.25mm 39 W/m2
09:39 35.1 °F /  1.7 °C 34.1 °F /  1.2 °C 30.35in /  1027.7hPa NNE 4.6mph /  7.4km/h 6.9mph /  11.1km/h 96% 0.01in /  0.25mm 42 W/m2
09:44 35.2 °F /  1.8 °C 34.2 °F /  1.2 °C 30.35in /  1027.7hPa NNE 5mph /  8km/h 8.1mph /  13km/h 96% 0.01in /  0.25mm 49 W/m2
09:49 35.1 °F /  1.7 °C 34.1 °F /  1.2 °C 30.35in /  1027.7hPa NNE 3.8mph /  6.1km/h 8.1mph /  13km/h 96% 0.00in /  0mm 62 W/m2
09:54 35.2 °F /  1.8 °C 34.2 °F /  1.2 °C 30.35in /  1027.7hPa NNE 4.6mph /  7.4km/h 8.1mph /  13km/h 96% 0.01in /  0.25mm 70 W/m2
09:59 35.1 °F /  1.7 °C 34.1 °F /  1.2 °C 30.36in /  1028hPa North 5.4mph /  8.7km/h 9.2mph /  14.8km/h 96% 0.01in /  0.25mm 60 W/m2
10:04 34.9 °F /  1.6 °C 33.9 °F /  1.1 °C 30.36in /  1028hPa North 4.9mph /  7.9km/h 9.2mph /  14.8km/h 96% 0.01in /  0.25mm 60 W/m2
10:09 34.9 °F /  1.6 °C 33.8 °F /  1 °C 30.36in /  1028hPa North 6.3mph /  10.1km/h 8.1mph /  13km/h 96% 0.01in /  0.25mm 63 W/m2
10:14 34.9 °F /  1.6 °C 33.9 °F /  1.1 °C 30.36in /  1028hPa North 4.4mph /  7.1km/h 8.1mph /  13km/h 96% 0.01in /  0.25mm 70 W/m2
10:19 35.1 °F /  1.7 °C 34.1 °F /  1.2 °C 30.35in /  1027.7hPa NNE 4.1mph /  6.6km/h 8.1mph /  13km/h 96% 0.01in /  0.25mm 58 W/m2
10:24 35.1 °F /  1.7 °C 34.1 °F /  1.2 °C 30.35in /  1027.7hPa NNE 2.4mph /  3.9km/h 8.1mph /  13km/h 96% 0.01in /  0.25mm 62 W/m2
10:29 35 °F /  1.7 °C 34 °F /  1.1 °C 30.35in /  1027.7hPa NNE 3.9mph /  6.3km/h 6.9mph /  11.1km/h 96% 0.01in /  0.25mm 83 W/m2
10:34 34.8 °F /  1.6 °C 33.8 °F /  1 °C 30.35in /  1027.7hPa NNE 4.2mph /  6.8km/h 6.9mph /  11.1km/h 96% 0.01in /  0.25mm 91 W/m2
10:39 34.8 °F /  1.6 °C 33.7 °F /  0.9 °C 30.34in /  1027.3hPa NE 3.4mph /  5.5km/h 6.9mph /  11.1km/h 96% 0.01in /  0.25mm 113 W/m2
10:44 35.2 °F /  1.8 °C 34.2 °F /  1.2 °C 30.34in /  1027.3hPa NE 3.7mph /  6km/h 8.1mph /  13km/h 96% 0.01in /  0.25mm 135 W/m2
10:49 35.2 °F /  1.8 °C 34.2 °F /  1.2 °C 30.33in /  1027hPa NNE 4.3mph /  6.9km/h 8.1mph /  13km/h 96% 0.01in /  0.25mm 121 W/m2
10:54 35.4 °F /  1.9 °C 34.3 °F /  1.3 °C 30.33in /  1027hPa NE 3.5mph /  5.6km/h 8.1mph /  13km/h 96% 0.01in /  0.25mm 121 W/m2
10:59 35.3 °F /  1.8 °C 34.3 °F /  1.3 °C 30.33in /  1027hPa NE 4.2mph /  6.8km/h 8.1mph /  13km/h 96% 0.01in /  0.25mm 107 W/m2
11:04 35.3 °F /  1.8 °C 34.2 °F /  1.2 °C 30.33in /  1027hPa NE 4.1mph /  6.6km/h 8.1mph /  13km/h 96% 0.01in /  0.25mm 63 W/m2
11:09 35.3 °F /  1.8 °C 34.3 °F /  1.3 °C 30.33in /  1027hPa NNE 4.6mph /  7.4km/h 8.1mph /  13km/h 96% 0.01in /  0.25mm 51 W/m2
11:14 35.2 °F /  1.8 °C 34.1 °F /  1.2 °C 30.33in /  1027hPa NE 4.9mph /  7.9km/h 9.2mph /  14.8km/h 95.8% 0.01in /  0.25mm 58 W/m2
11:19 35.2 °F /  1.8 °C 34.1 °F /  1.2 °C 30.33in /  1027hPa NE 4.9mph /  7.9km/h 9.2mph /  14.8km/h 96% 0.01in /  0.25mm 51 W/m2
11:24 35.1 °F /  1.7 °C 34 °F /  1.1 °C 30.33in /  1027hPa NE 4.9mph /  7.9km/h 10.3mph /  16.6km/h 95.7% 0.01in /  0.25mm 56 W/m2
11:29 35.1 °F /  1.7 °C 34 °F /  1.1 °C 30.33in /  1027hPa NNE 6.4mph /  10.3km/h 10.3mph /  16.6km/h 95.7% 0.01in /  0.25mm 44 W/m2
11:34 35 °F /  1.7 °C 33.7 °F /  0.9 °C 30.33in /  1027hPa NNE 6.6mph /  10.6km/h 10.3mph /  16.6km/h 95% 0.01in /  0.25mm 40 W/m2
11:39 35 °F /  1.7 °C 33.7 °F /  0.9 °C 30.33in /  1027hPa NE 7.5mph /  12.1km/h 12.6mph /  20.3km/h 95% 0.01in /  0.25mm 53 W/m2
11:44 34.9 °F /  1.6 °C 33.6 °F /  0.9 °C 30.34in /  1027.3hPa NNE 7.9mph /  12.7km/h 13.8mph /  22.2km/h 95% 0.01in /  0.25mm 53 W/m2
11:49 34.8 °F /  1.6 °C 33.5 °F /  0.8 °C 30.34in /  1027.3hPa NNE 4.4mph /  7.1km/h 13.8mph /  22.2km/h 95% 0.01in /  0.25mm 79 W/m2
11:54 34.9 °F /  1.6 °C 33.6 °F /  0.9 °C 30.34in /  1027.3hPa NNE 5.7mph /  9.2km/h 10.3mph /  16.6km/h 95% 0.01in /  0.25mm 83 W/m2
11:59 35.1 °F /  1.7 °C 33.8 °F /  1 °C 30.34in /  1027.3hPa NNE 6.5mph /  10.5km/h 12.6mph /  20.3km/h 95.2% 0.01in /  0.25mm 95 W/m2
12:04 35.1 °F /  1.7 °C 34 °F /  1.1 °C 30.34in /  1027.3hPa NE 6.8mph /  10.9km/h 12.6mph /  20.3km/h 95.7% 0.01in /  0.25mm 91 W/m2
12:09 35.2 °F /  1.8 °C 33.9 °F /  1.1 °C 30.33in /  1027hPa NNE 5.1mph /  8.2km/h 12.6mph /  20.3km/h 95.3% 0.01in /  0.25mm 100 W/m2
12:14 35.3 °F /  1.8 °C 34.1 °F /  1.2 °C 30.33in /  1027hPa NNE 4.7mph /  7.6km/h 10.3mph /  16.6km/h 95.6% 0.00in /  0mm 95 W/m2
12:19 35.5 °F /  1.9 °C 34.4 °F /  1.3 °C 30.33in /  1027hPa NNE 6.4mph /  10.3km/h 10.3mph /  16.6km/h 96% 0.01in /  0.25mm 102 W/m2
12:24 35.8 °F /  2.1 °C 34.7 °F /  1.5 °C 30.33in /  1027hPa NE 4.5mph /  7.2km/h 10.3mph /  16.6km/h 96% 0.01in /  0.25mm 114 W/m2
12:29 35.9 °F /  2.2 °C 34.8 °F /  1.6 °C 30.33in /  1027hPa North 4.7mph /  7.6km/h 9.2mph /  14.8km/h 96% 0.01in /  0.25mm 127 W/m2
12:34 35.9 °F /  2.2 °C 34.9 °F /  1.6 °C 30.33in /  1027hPa NNE 4mph /  6.4km/h 9.2mph /  14.8km/h 96% 0.01in /  0.25mm 142 W/m2
12:39 35.8 °F /  2.1 °C 34.7 °F /  1.5 °C 30.33in /  1027hPa NE 4.9mph /  7.9km/h 10.3mph /  16.6km/h 95.5% 0.01in /  0.25mm 118 W/m2
12:44 35.8 °F /  2.1 °C 34.7 °F /  1.5 °C 30.33in /  1027hPa NNE 5.3mph /  8.5km/h 10.3mph /  16.6km/h 96% 0.01in /  0.25mm 127 W/m2
12:49 35.9 °F /  2.2 °C 34.9 °F /  1.6 °C 30.32in /  1026.6hPa NE 4.7mph /  7.6km/h 9.2mph /  14.8km/h 96% 0.01in /  0.25mm 142 W/m2
12:54 35.9 °F /  2.2 °C 34.8 °F /  1.6 °C 30.32in /  1026.6hPa NNE 5mph /  8km/h 8.1mph /  13km/h 95.6% 0.01in /  0.25mm 141 W/m2
12:59 36.1 °F /  2.3 °C 35.1 °F /  1.7 °C 30.32in /  1026.6hPa NNE 4.5mph /  7.2km/h 8.1mph /  13km/h 96% 0.01in /  0.25mm 123 W/m2
13:04 36 °F /  2.2 °C 34.7 °F /  1.5 °C 30.32in /  1026.6hPa NNE 4.2mph /  6.8km/h 8.1mph /  13km/h 95% 0.02in /  0.51mm 107 W/m2
13:09 36 °F /  2.2 °C 34.9 °F /  1.6 °C 30.32in /  1026.6hPa NNE 3.6mph /  5.8km/h 8.1mph /  13km/h 95.9% 0.02in /  0.51mm 109 W/m2
13:14 36 °F /  2.2 °C 34.9 °F /  1.6 °C 30.32in /  1026.6hPa NNE 4.5mph /  7.2km/h 8.1mph /  13km/h 95.7% 0.02in /  0.51mm 104 W/m2
13:19 36 °F /  2.2 °C 34.9 °F /  1.6 °C 30.32in /  1026.6hPa NNE 3.7mph /  6km/h 6.9mph /  11.1km/h 95.8% 0.02in /  0.51mm 104 W/m2
13:24 36.4 °F /  2.4 °C 35.3 °F /  1.8 °C 30.32in /  1026.6hPa NNE 3.7mph /  6km/h 5.8mph /  9.3km/h 96% 0.02in /  0.51mm 134 W/m2
13:29 36.6 °F /  2.6 °C 35.5 °F /  1.9 °C 30.31in /  1026.3hPa NE 3.6mph /  5.8km/h 8.1mph /  13km/h 96% 0.01in /  0.25mm 178 W/m2
13:34 36.5 °F /  2.5 °C 35.5 °F /  1.9 °C 30.30in /  1026hPa NNE 3.9mph /  6.3km/h 8.1mph /  13km/h 96% 0.01in /  0.25mm 197 W/m2
13:39 36.7 °F /  2.6 °C 35.7 °F /  2.1 °C 30.30in /  1026hPa NNE 4.1mph /  6.6km/h 6.9mph /  11.1km/h 96% 0.01in /  0.25mm 197 W/m2
13:44 36.8 °F /  2.7 °C 35.8 °F /  2.1 °C 30.30in /  1026hPa NE 4.1mph /  6.6km/h 6.9mph /  11.1km/h 96% 0.01in /  0.25mm 167 W/m2
13:49 36.7 °F /  2.6 °C 35.5 °F /  1.9 °C 30.30in /  1026hPa NE 3mph /  4.8km/h 6.9mph /  11.1km/h 95.2% 0.01in /  0.25mm 125 W/m2
13:54 36.6 °F /  2.6 °C 35.3 °F /  1.8 °C 30.29in /  1025.6hPa NE 2.2mph /  3.5km/h 5.8mph /  9.3km/h 95% 0.01in /  0.25mm 109 W/m2
13:59 36.7 °F /  2.6 °C 35.6 °F /  2 °C 30.29in /  1025.6hPa NE 1.9mph /  3.1km/h 5.8mph /  9.3km/h 95.6% 0.01in /  0.25mm 127 W/m2
14:04 37 °F /  2.8 °C 35.9 °F /  2.2 °C 30.28in /  1025.3hPa NNE 1.4mph /  2.3km/h 4.6mph /  7.4km/h 95.9% 0.01in /  0.25mm 155 W/m2
14:09 36.7 °F /  2.6 °C 35.2 °F /  1.8 °C 30.28in /  1025.3hPa ENE 0.7mph /  1.1km/h 3.4mph /  5.5km/h 94.5% 0.00in /  0mm 195 W/m2
14:14 36.9 °F /  2.7 °C 35.7 °F /  2.1 °C 30.27in /  1024.9hPa NW 0.9mph /  1.4km/h 3.4mph /  5.5km/h 95.2% 0.00in /  0mm 192 W/m2
14:19 37.3 °F /  2.9 °C 36 °F /  2.2 °C 30.27in /  1024.9hPa North 1.1mph /  1.8km/h 3.4mph /  5.5km/h 95% 0.00in /  0mm 142 W/m2
14:24 37.3 °F /  2.9 °C 35.8 °F /  2.1 °C 30.26in /  1024.6hPa WNW 1.5mph /  2.4km/h 3.4mph /  5.5km/h 94.2% 0.00in /  0mm 125 W/m2
14:29 37.1 °F /  2.8 °C 35.4 °F /  1.9 °C 30.26in /  1024.6hPa WNW 0.6mph /  1km/h 3.4mph /  5.5km/h 93.7% 0.00in /  0mm 114 W/m2
14:34 37 °F /  2.8 °C 35.3 °F /  1.8 °C 30.25in /  1024.3hPa WNW 0.6mph /  1km/h 2.3mph /  3.7km/h 93.6% 0.00in /  0mm 98 W/m2
14:39 37 °F /  2.8 °C 35.2 °F /  1.8 °C 30.25in /  1024.3hPa WNW 0.8mph /  1.3km/h 2.3mph /  3.7km/h 93.2% 0.00in /  0mm 91 W/m2
14:44 37.3 °F /  2.9 °C 35.7 °F /  2.1 °C 30.25in /  1024.3hPa WNW 1.6mph /  2.6km/h 4.6mph /  7.4km/h 93.8% 0.00in /  0mm 109 W/m2
14:49 37.5 °F /  3.1 °C 35.7 °F /  2.1 °C 30.25in /  1024.3hPa West 0.3mph /  0.5km/h 4.6mph /  7.4km/h 93.3% 0.00in /  0mm 109 W/m2
14:54 37.3 °F /  2.9 °C 35.5 °F /  1.9 °C 30.25in /  1024.3hPa Calm   2.3mph /  3.7km/h 93% 0.00in /  0mm 84 W/m2
14:59 37.3 °F /  2.9 °C 35.6 °F /  2 °C 30.24in /  1023.9hPa Calm     93.2% 0.00in /  0mm 67 W/m2
15:04 37.2 °F /  2.9 °C 35.3 °F /  1.8 °C 30.25in /  1024.3hPa West 0.7mph /  1.1km/h 2.3mph /  3.7km/h 92.8% 0.00in /  0mm 58 W/m2
15:09 37.2 °F /  2.9 °C 35.4 °F /  1.9 °C 30.25in /  1024.3hPa West 1.9mph /  3.1km/h 3.4mph /  5.5km/h 92.8% 0.00in /  0mm 74 W/m2
15:14 37.4 °F /  3 °C 35.6 °F /  2 °C 30.25in /  1024.3hPa West 0.7mph /  1.1km/h 3.4mph /  5.5km/h 93% 0.00in /  0mm 74 W/m2
15:19 37.6 °F /  3.1 °C 35.8 °F /  2.1 °C 30.25in /  1024.3hPa WNW 2.1mph /  3.4km/h 3.4mph /  5.5km/h 93.3% 0.00in /  0mm 86 W/m2
15:24 37.8 °F /  3.2 °C 36.1 °F /  2.3 °C 30.25in /  1024.3hPa NNW 2.2mph /  3.5km/h 5.8mph /  9.3km/h 93.5% 0.00in /  0mm 74 W/m2
15:29 38 °F /  3.3 °C 36.5 °F /  2.5 °C 30.26in /  1024.6hPa North 2.7mph /  4.3km/h 5.8mph /  9.3km/h 94% 0.00in /  0mm 63 W/m2
15:34 37.9 °F /  3.3 °C 36.3 °F /  2.4 °C 30.26in /  1024.6hPa North 3.7mph /  6km/h 6.9mph /  11.1km/h 93.6% 0.00in /  0mm 56 W/m2
15:39 37.7 °F /  3.2 °C 36 °F /  2.2 °C 30.26in /  1024.6hPa North 4.3mph /  6.9km/h 8.1mph /  13km/h 93.6% 0.00in /  0mm 35 W/m2
15:44 37.7 °F /  3.2 °C 36.2 °F /  2.3 °C 30.26in /  1024.6hPa North 5.8mph /  9.3km/h 9.2mph /  14.8km/h 94% 0.00in /  0mm 35 W/m2
15:49 37.5 °F /  3.1 °C 36 °F /  2.2 °C 30.26in /  1024.6hPa NNE 5.2mph /  8.4km/h 9.2mph /  14.8km/h 94% 0.00in /  0mm 32 W/m2
15:54 37.3 °F /  2.9 °C 35.8 °F /  2.1 °C 30.26in /  1024.6hPa NNE 5.1mph /  8.2km/h 8.1mph /  13km/h 94% 0.00in /  0mm 26 W/m2
15:59 37.1 °F /  2.8 °C 35.5 °F /  1.9 °C 30.26in /  1024.6hPa NNE 6.5mph /  10.5km/h 11.5mph /  18.5km/h 94% 0.00in /  0mm 28 W/m2
16:04 36.9 °F /  2.7 °C 35.4 °F /  1.9 °C 30.26in /  1024.6hPa NNE 4.4mph /  7.1km/h 11.5mph /  18.5km/h 94% 0.00in /  0mm 28 W/m2
16:09 36.7 °F /  2.6 °C 35.1 °F /  1.7 °C 30.26in /  1024.6hPa NNE 5.5mph /  8.9km/h 11.5mph /  18.5km/h 94% 0.00in /  0mm 26 W/m2
16:14 36.5 °F /  2.5 °C 34.9 °F /  1.6 °C 30.25in /  1024.3hPa NNE 5.4mph /  8.7km/h 11.5mph /  18.5km/h 94% 0.00in /  0mm 26 W/m2
16:19 36.3 °F /  2.4 °C 34.7 °F /  1.5 °C 30.26in /  1024.6hPa NNE 4.9mph /  7.9km/h 8.1mph /  13km/h 94% 0.00in /  0mm 26 W/m2
16:24 36.3 °F /  2.4 °C 34.8 °F /  1.6 °C 30.26in /  1024.6hPa North 2.4mph /  3.9km/h 8.1mph /  13km/h 94.2% 0.00in /  0mm 25 W/m2
16:29 36.3 °F /  2.4 °C 34.7 °F /  1.5 °C 30.25in /  1024.3hPa NNE 4.5mph /  7.2km/h 8.1mph /  13km/h 94% 0.00in /  0mm 26 W/m2
16:34 36.1 °F /  2.3 °C 34.6 °F /  1.4 °C 30.25in /  1024.3hPa NNE 4.4mph /  7.1km/h 8.1mph /  13km/h 94% 0.00in /  0mm 26 W/m2
16:39 36 °F /  2.2 °C 34.5 °F /  1.4 °C 30.25in /  1024.3hPa NE 3.9mph /  6.3km/h 8.1mph /  13km/h 94% 0.00in /  0mm 26 W/m2
16:44 36 °F /  2.2 °C 34.4 °F /  1.3 °C 30.25in /  1024.3hPa NNE 4mph /  6.4km/h 8.1mph /  13km/h 94% 0.00in /  0mm 26 W/m2
16:49 35.7 °F /  2.1 °C 34.1 °F /  1.2 °C 30.25in /  1024.3hPa NNE 2.5mph /  4km/h 8.1mph /  13km/h 93.8% 0.00in /  0mm 25 W/m2
16:54 35.7 °F /  2.1 °C 34.1 °F /  1.2 °C 30.25in /  1024.3hPa NE 1mph /  1.6km/h 4.6mph /  7.4km/h 94% 0.00in /  0mm 23 W/m2
16:59 35.6 °F /  2 °C 34.1 °F /  1.2 °C 30.24in /  1023.9hPa North 2.4mph /  3.9km/h 6.9mph /  11.1km/h 94% 0.00in /  0mm 19 W/m2
17:04 35.7 °F /  2.1 °C 34.2 °F /  1.2 °C 30.24in /  1023.9hPa North 2.9mph /  4.7km/h 6.9mph /  11.1km/h 94% 0.00in /  0mm 14 W/m2
17:09 35.6 °F /  2 °C 34.1 °F /  1.2 °C 30.24in /  1023.9hPa NNE 2.6mph /  4.2km/h 5.8mph /  9.3km/h 94% 0.00in /  0mm 14 W/m2
17:14 35.5 °F /  1.9 °C 34 °F /  1.1 °C 30.24in /  1023.9hPa NNE 2mph /  3.2km/h 4.6mph /  7.4km/h 94% 0.00in /  0mm 14 W/m2
17:19 35.6 °F /  2 °C 34.1 °F /  1.2 °C 30.24in /  1023.9hPa NNE 2.7mph /  4.3km/h 4.6mph /  7.4km/h 94% 0.00in /  0mm 16 W/m2
17:24 35.6 °F /  2 °C 34.1 °F /  1.2 °C 30.23in /  1023.6hPa North 2.8mph /  4.5km/h 4.6mph /  7.4km/h 94% 0.00in /  0mm 14 W/m2
17:29 35.7 °F /  2.1 °C 34.1 °F /  1.2 °C 30.23in /  1023.6hPa North 2.7mph /  4.3km/h 4.6mph /  7.4km/h 94% 0.00in /  0mm 11 W/m2
17:34 35.6 °F /  2 °C 34.1 °F /  1.2 °C 30.23in /  1023.6hPa NNE 2.4mph /  3.9km/h 4.6mph /  7.4km/h 94% 0.00in /  0mm 7 W/m2
17:39 35.6 °F /  2 °C 34 °F /  1.1 °C 30.23in /  1023.6hPa NNE 1.2mph /  1.9km/h 3.4mph /  5.5km/h 94% 0.00in /  0mm 0 W/m2
17:44 35.6 °F /  2 °C 34.1 °F /  1.2 °C 30.23in /  1023.6hPa ENE 1.7mph /  2.7km/h 3.4mph /  5.5km/h 94% 0.00in /  0mm 0 W/m2
17:49 35.6 °F /  2 °C 34 °F /  1.1 °C 30.22in /  1023.2hPa NE 0.6mph /  1km/h 3.4mph /  5.5km/h 94% 0.00in /  0mm 0 W/m2
17:54 35.6 °F /  2 °C 34.1 °F /  1.2 °C 30.22in /  1023.2hPa NNE 1.4mph /  2.3km/h 3.4mph /  5.5km/h 94% 0.00in /  0mm 0 W/m2
17:59 35.5 °F /  1.9 °C 34 °F /  1.1 °C 30.22in /  1023.2hPa North 0.6mph /  1km/h 3.4mph /  5.5km/h 94% 0.00in /  0mm 0 W/m2
18:04 35.4 °F /  1.9 °C 33.9 °F /  1.1 °C 30.22in /  1023.2hPa Calm   2.3mph /  3.7km/h 94% 0.00in /  0mm 0 W/m2
18:09 35.5 °F /  1.9 °C 33.9 °F /  1.1 °C 30.22in /  1023.2hPa North 0.1mph /  0.2km/h 1.1mph /  1.8km/h 94% 0.00in /  0mm 0 W/m2
18:14 35.6 °F /  2 °C 34 °F /  1.1 °C 30.22in /  1023.2hPa North 0.3mph /  0.5km/h 2.3mph /  3.7km/h 94% 0.00in /  0mm 0 W/m2
18:19 35.6 °F /  2 °C 34.1 °F /  1.2 °C 30.22in /  1023.2hPa North 0.5mph /  0.8km/h 2.3mph /  3.7km/h 94% 0.00in /  0mm 0 W/m2
18:24 35.7 °F /  2.1 °C 34.2 °F /  1.2 °C 30.22in /  1023.2hPa North 0.4mph /  0.6km/h 2.3mph /  3.7km/h 94% 0.00in /  0mm 0 W/m2
18:29 35.7 °F /  2.1 °C 34.1 °F /  1.2 °C 30.21in /  1022.9hPa Calm   1.1mph /  1.8km/h 94% 0.00in /  0mm 0 W/m2
18:34 35.7 °F /  2.1 °C 34.2 °F /  1.2 °C 30.21in /  1022.9hPa Calm   1.1mph /  1.8km/h 94.1% 0.00in /  0mm 0 W/m2
18:39 35.8 °F /  2.1 °C 34.2 °F /  1.2 °C 30.21in /  1022.9hPa Calm   1.1mph /  1.8km/h 94.1% 0.00in /  0mm 0 W/m2
18:44 35.6 °F /  2 °C 34 °F /  1.1 °C 30.21in /  1022.9hPa North 0.1mph /  0.2km/h 1.1mph /  1.8km/h 94% 0.00in /  0mm 0 W/m2
18:49 35.5 °F /  1.9 °C 33.7 °F /  0.9 °C 30.22in /  1023.2hPa NNW 1.3mph /  2.1km/h 3.4mph /  5.5km/h 93% 0.00in /  0mm 0 W/m2
18:54 35.6 °F /  2 °C 33.8 °F /  1 °C 30.22in /  1023.2hPa WNW 1.6mph /  2.6km/h 3.4mph /  5.5km/h 93% 0.00in /  0mm 0 W/m2
18:59 35.6 °F /  2 °C 33.8 °F /  1 °C 30.22in /  1023.2hPa WNW 0.4mph /  0.6km/h 3.4mph /  5.5km/h 93% 0.00in /  0mm 0 W/m2
19:04 35.5 °F /  1.9 °C 33.5 °F /  0.8 °C 30.21in /  1022.9hPa WNW 0.6mph /  1km/h 2.3mph /  3.7km/h 92.4% 0.00in /  0mm 0 W/m2
19:09 35.6 °F /  2 °C 33.7 °F /  0.9 °C 30.22in /  1023.2hPa West 2.1mph /  3.4km/h 5.8mph /  9.3km/h 92.7% 0.00in /  0mm 0 W/m2
19:14 35.8 °F /  2.1 °C 34 °F /  1.1 °C 30.22in /  1023.2hPa West 2mph /  3.2km/h 5.8mph /  9.3km/h 93% 0.00in /  0mm 0 W/m2
19:19 35.8 °F /  2.1 °C 33.9 °F /  1.1 °C 30.22in /  1023.2hPa West 0.3mph /  0.5km/h 3.4mph /  5.5km/h 92.7% 0.00in /  0mm 0 W/m2
19:24 35.8 °F /  2.1 °C 34 °F /  1.1 °C 30.22in /  1023.2hPa West 2.3mph /  3.7km/h 4.6mph /  7.4km/h 93% 0.00in /  0mm 0 W/m2
19:29 35.8 °F /  2.1 °C 34 °F /  1.1 °C 30.22in /  1023.2hPa West 3mph /  4.8km/h 4.6mph /  7.4km/h 93% 0.00in /  0mm 0 W/m2
19:34 35.8 °F /  2.1 °C 34 °F /  1.1 °C 30.22in /  1023.2hPa West 3.2mph /  5.1km/h 4.6mph /  7.4km/h 93% 0.00in /  0mm 0 W/m2
19:39 35.9 °F /  2.2 °C 34.1 °F /  1.2 °C 30.22in /  1023.2hPa West 2.9mph /  4.7km/h 4.6mph /  7.4km/h 93% 0.00in /  0mm 0 W/m2
19:44 35.9 °F /  2.2 °C 34 °F /  1.1 °C 30.22in /  1023.2hPa WNW 1.8mph /  2.9km/h 4.6mph /  7.4km/h 93% 0.00in /  0mm 0 W/m2
19:49 35.9 °F /  2.2 °C 34.1 °F /  1.2 °C 30.22in /  1023.2hPa NNW 2.4mph /  3.9km/h 4.6mph /  7.4km/h 93% 0.00in /  0mm 0 W/m2
19:54 35.9 °F /  2.2 °C 34.1 °F /  1.2 °C 30.22in /  1023.2hPa NNE 3.2mph /  5.1km/h 5.8mph /  9.3km/h 93% 0.00in /  0mm 0 W/m2
19:59 35.8 °F /  2.1 °C 34.1 °F /  1.2 °C 30.22in /  1023.2hPa NNW 2.1mph /  3.4km/h 5.8mph /  9.3km/h 93.3% 0.00in /  0mm 0 W/m2
20:04 35.7 °F /  2.1 °C 34 °F /  1.1 °C 30.22in /  1023.2hPa WNW 2.1mph /  3.4km/h 4.6mph /  7.4km/h 93.2% 0.00in /  0mm 0 W/m2
20:09 35.7 °F /  2.1 °C 33.9 °F /  1.1 °C 30.22in /  1023.2hPa WNW 3mph /  4.8km/h 4.6mph /  7.4km/h 93% 0.00in /  0mm 0 W/m2
20:14 35.7 °F /  2.1 °C 33.8 °F /  1 °C 30.21in /  1022.9hPa WNW 1mph /  1.6km/h 4.6mph /  7.4km/h 93% 0.00in /  0mm 0 W/m2
20:19 35.6 °F /  2 °C 33.8 °F /  1 °C 30.21in /  1022.9hPa WNW 2.4mph /  3.9km/h 4.6mph /  7.4km/h 93% 0.00in /  0mm 0 W/m2
20:24 35.6 °F /  2 °C 33.8 °F /  1 °C 30.21in /  1022.9hPa WNW 1.6mph /  2.6km/h 4.6mph /  7.4km/h 93% 0.00in /  0mm 0 W/m2
20:29 35.6 °F /  2 °C 33.8 °F /  1 °C 30.21in /  1022.9hPa WNW 3.9mph /  6.3km/h 5.8mph /  9.3km/h 93% 0.00in /  0mm 0 W/m2
20:34 35.6 °F /  2 °C 33.8 °F /  1 °C 30.22in /  1023.2hPa WNW 2.9mph /  4.7km/h 5.8mph /  9.3km/h 93% 0.00in /  0mm 0 W/m2
20:39 35.6 °F /  2 °C 33.8 °F /  1 °C 30.21in /  1022.9hPa WNW 3.1mph /  5km/h 5.8mph /  9.3km/h 93% 0.00in /  0mm 0 W/m2
20:44 35.6 °F /  2 °C 33.7 °F /  0.9 °C 30.21in /  1022.9hPa WNW 2.2mph /  3.5km/h 5.8mph /  9.3km/h 93% 0.00in /  0mm 0 W/m2
20:49 35.4 °F /  1.9 °C 33.6 °F /  0.9 °C 30.22in /  1023.2hPa WNW 3.8mph /  6.1km/h 5.8mph /  9.3km/h 93% 0.00in /  0mm 0 W/m2
20:54 35.4 °F /  1.9 °C 33.6 °F /  0.9 °C 30.23in /  1023.6hPa WNW 4.2mph /  6.8km/h 6.9mph /  11.1km/h 93% 0.00in /  0mm 0 W/m2
20:59 35.5 °F /  1.9 °C 33.6 °F /  0.9 °C 30.22in /  1023.2hPa WNW 3.7mph /  6km/h 6.9mph /  11.1km/h 92.6% 0.00in /  0mm 0 W/m2
21:04 35.4 °F /  1.9 °C 33.3 °F /  0.7 °C 30.22in /  1023.2hPa WNW 3mph /  4.8km/h 6.9mph /  11.1km/h 92% 0.00in /  0mm 0 W/m2
21:09 35.4 °F /  1.9 °C 33 °F /  0.6 °C 30.22in /  1023.2hPa WNW 3.6mph /  5.8km/h 5.8mph /  9.3km/h 91% 0.00in /  0mm 0 W/m2
21:14 35.3 °F /  1.8 °C 32.6 °F /  0.3 °C 30.22in /  1023.2hPa West 2.9mph /  4.7km/h 5.8mph /  9.3km/h 89.5% 0.00in /  0mm 0 W/m2
21:19 35.4 °F /  1.9 °C 32.8 °F /  0.4 °C 30.22in /  1023.2hPa West 3.4mph /  5.5km/h 5.8mph /  9.3km/h 90% 0.00in /  0mm 0 W/m2
21:24 35.5 °F /  1.9 °C 32.8 °F /  0.4 °C 30.22in /  1023.2hPa West 3.6mph /  5.8km/h 6.9mph /  11.1km/h 90% 0.00in /  0mm 0 W/m2
21:29 35.5 °F /  1.9 °C 32.9 °F /  0.5 °C 30.22in /  1023.2hPa West 3.5mph /  5.6km/h 6.9mph /  11.1km/h 90% 0.00in /  0mm 0 W/m2
21:34 35.5 °F /  1.9 °C 32.9 °F /  0.5 °C 30.22in /  1023.2hPa West 3mph /  4.8km/h 5.8mph /  9.3km/h 90% 0.00in /  0mm 0 W/m2
21:39 35.5 °F /  1.9 °C 33 °F /  0.6 °C 30.21in /  1022.9hPa West 4.3mph /  6.9km/h 8.1mph /  13km/h 90.3% 0.00in /  0mm 0 W/m2
21:44 35.6 °F /  2 °C 33.2 °F /  0.7 °C 30.21in /  1022.9hPa West 3.6mph /  5.8km/h 8.1mph /  13km/h 91% 0.00in /  0mm 0 W/m2
21:49 35.6 °F /  2 °C 33.2 °F /  0.7 °C 30.21in /  1022.9hPa West 4.3mph /  6.9km/h 6.9mph /  11.1km/h 91% 0.00in /  0mm 0 W/m2
21:54 35.6 °F /  2 °C 33.2 °F /  0.7 °C 30.21in /  1022.9hPa West 3.2mph /  5.1km/h 6.9mph /  11.1km/h 91% 0.00in /  0mm 0 W/m2
21:59 35.6 °F /  2 °C 33.2 °F /  0.7 °C 30.21in /  1022.9hPa West 2.6mph /  4.2km/h 5.8mph /  9.3km/h 91% 0.00in /  0mm 0 W/m2
22:04 35.6 °F /  2 °C 33.2 °F /  0.7 °C 30.21in /  1022.9hPa WNW 3.1mph /  5km/h 4.6mph /  7.4km/h 91% 0.00in /  0mm 0 W/m2
22:09 35.6 °F /  2 °C 33 °F /  0.6 °C 30.21in /  1022.9hPa West 3mph /  4.8km/h 4.6mph /  7.4km/h 90.3% 0.00in /  0mm 0 W/m2
22:14 35.6 °F /  2 °C 32.9 °F /  0.5 °C 30.21in /  1022.9hPa West 3.9mph /  6.3km/h 6.9mph /  11.1km/h 90% 0.00in /  0mm 0 W/m2
22:19 35.6 °F /  2 °C 33.2 °F /  0.7 °C 30.21in /  1022.9hPa West 2.9mph /  4.7km/h 6.9mph /  11.1km/h 90.6% 0.00in /  0mm 0 W/m2
22:24 35.6 °F /  2 °C 33.2 °F /  0.7 °C 30.21in /  1022.9hPa West 2.8mph /  4.5km/h 4.6mph /  7.4km/h 90.5% 0.00in /  0mm 0 W/m2
22:29 35.7 °F /  2.1 °C 33.2 °F /  0.7 °C 30.21in /  1022.9hPa West 3.2mph /  5.1km/h 5.8mph /  9.3km/h 90.6% 0.00in /  0mm 0 W/m2
22:34 35.7 °F /  2.1 °C 33.2 °F /  0.7 °C 30.21in /  1022.9hPa West 3.1mph /  5km/h 5.8mph /  9.3km/h 90.5% 0.00in /  0mm 0 W/m2
22:39 35.6 °F /  2 °C 33 °F /  0.6 °C 30.21in /  1022.9hPa West 2.7mph /  4.3km/h 5.8mph /  9.3km/h 90% 0.00in /  0mm 0 W/m2
22:44 35.7 °F /  2.1 °C 33 °F /  0.6 °C 30.20in /  1022.6hPa West 4.3mph /  6.9km/h 8.1mph /  13km/h 90% 0.00in /  0mm 0 W/m2
22:49 35.6 °F /  2 °C 33 °F /  0.6 °C 30.20in /  1022.6hPa West 4.1mph /  6.6km/h 8.1mph /  13km/h 90% 0.00in /  0mm 0 W/m2
22:54 35.6 °F /  2 °C 33.1 °F /  0.6 °C 30.20in /  1022.6hPa WSW 4.5mph /  7.2km/h 6.9mph /  11.1km/h 90.3% 0.00in /  0mm 0 W/m2
22:59 35.6 °F /  2 °C 33.2 °F /  0.7 °C 30.19in /  1022.2hPa WSW 5mph /  8km/h 8.1mph /  13km/h 91% 0.00in /  0mm 0 W/m2
23:04 35.6 °F /  2 °C 33.2 °F /  0.7 °C 30.19in /  1022.2hPa SW 5.1mph /  8.2km/h 9.2mph /  14.8km/h 91% 0.00in /  0mm 0 W/m2
23:09 35.6 °F /  2 °C 33.2 °F /  0.7 °C 30.19in /  1022.2hPa WSW 4.8mph /  7.7km/h 9.2mph /  14.8km/h 91% 0.00in /  0mm 0 W/m2
23:14 35.6 °F /  2 °C 33.3 °F /  0.7 °C 30.19in /  1022.2hPa West 3.5mph /  5.6km/h 8.1mph /  13km/h 91% 0.00in /  0mm 0 W/m2
23:19 35.7 °F /  2.1 °C 33.4 °F /  0.8 °C 30.19in /  1022.2hPa West 5.2mph /  8.4km/h 9.2mph /  14.8km/h 91% 0.00in /  0mm 0 W/m2
23:24 35.9 °F /  2.2 °C 33.5 °F /  0.8 °C 30.19in /  1022.2hPa WNW 4.6mph /  7.4km/h 9.2mph /  14.8km/h 91% 0.00in /  0mm 0 W/m2
23:29 35.9 °F /  2.2 °C 33.5 °F /  0.8 °C 30.19in /  1022.2hPa WNW 3.2mph /  5.1km/h 8.1mph /  13km/h 91% 0.00in /  0mm 0 W/m2
23:34 35.8 °F /  2.1 °C 33.5 °F /  0.8 °C 30.19in /  1022.2hPa WNW 3.8mph /  6.1km/h 5.8mph /  9.3km/h 91% 0.00in /  0mm 0 W/m2
23:39 35.9 °F /  2.2 °C 33.5 °F /  0.8 °C 30.19in /  1022.2hPa West 3.5mph /  5.6km/h 5.8mph /  9.3km/h 91% 0.00in /  0mm 0 W/m2
23:44 35.9 °F /  2.2 °C 33.4 °F /  0.8 °C 30.19in /  1022.2hPa WNW 4.3mph /  6.9km/h 8.1mph /  13km/h 90.6% 0.00in /  0mm 0 W/m2
23:49 35.8 °F /  2.1 °C 33.2 °F /  0.7 °C 30.19in /  1022.2hPa WNW 4.5mph /  7.2km/h 8.1mph /  13km/h 90% 0.00in /  0mm 0 W/m2
23:54 35.9 °F /  2.2 °C 33.3 °F /  0.7 °C 30.18in /  1021.9hPa West 4.5mph /  7.2km/h 8.1mph /  13km/h 90% 0.00in /  0mm 0 W/m2
23:59 35.9 °F /  2.2 °C 33.2 °F /  0.7 °C 30.18in /  1021.9hPa West 4.2mph /  6.8km/h 6.9mph /  11.1km/h 90% 0.00in /  0mm 0 W/m2
Peotne Weather
Compliments of Weather Underground - 4 mb